CHICAGO AURORA MUNICIPAL, IL, United States (KARR) 41-46N 088-28W 215M
Wind: from the ENE (060 degrees) at 12 MPH (10 KT):0
Visibility: 4 mile(s):0
Sky conditions: overcast
Weather: mist
Precipitation last hour: A trace
Temperature: 66.0 F (18.9 C)
Dew Point: 64.0 F (17.8 C)
Relative Humidity: 93%
Pressure (altimeter): 29.77 in. Hg (1008 hPa)
ob: KARR 220052Z 06010KT 4SM BR OVC012 19/18 A2977 RMK AO2 RAE15 SLP077 P0000 T01890178
Raw METAR:KARR 220052Z 06010KT 4SM BR OVC012 19/18 A2977 RMK AO2 RAE15 SLP077 P0000 T01890178
cycle: 1
Back to top

CHICAGO/WEST CH DUPAGE, IL, United States (KDPA) 41-54N 88-15W 230M
Wind: from the ENE (070 degrees) at 13 MPH (11 KT):0
Visibility: 5 mile(s):0
Sky conditions: overcast
Weather: mist
Temperature: 64.9 F (18.3 C)
Dew Point: 62.1 F (16.7 C)
Relative Humidity: 90%
Pressure (altimeter): 29.78 in. Hg (1008 hPa)
ob: KDPA 220052Z 07011KT 5SM BR OVC012 18/17 A2978 RMK AO2 SLP080 T01830167
Raw METAR:KDPA 220052Z 07011KT 5SM BR OVC012 18/17 A2978 RMK AO2 SLP080 T01830167
cycle: 1
Back to top

De Kalb, De Kalb Taylor Municipal Airport, IL, United States (KDKB) 41-55-55N 088-42-30W
Wind: from the ENE (070 degrees) at 15 MPH (13 KT) gusting to 18 MPH (16 KT):0
Visibility: 10 mile(s):0
Sky conditions: overcast
Temperature: 64.2 F (17.9 C)
Dew Point: 62.6 F (17.0 C)
Relative Humidity: 94%
Pressure (altimeter): 29.79 in. Hg (1008 hPa)
ob: KDKB 220055Z AUTO 07013G16KT 10SM OVC009 18/17 A2979 RMK AO2 T01790170
Raw METAR:KDKB 220055Z AUTO 07013G16KT 10SM OVC009 18/17 A2979 RMK AO2 T01790170
cycle: 1
Back to top

Joliet, Joliet Regional Airport, IL, United States (KJOT) 41-31-05N 088-10-31W
Wind: from the NE (050 degrees) at 6 MPH (5 KT):0
Visibility: 4 mile(s):0
Sky conditions: overcast
Weather: mist
Temperature: 68.2 F (20.1 C)
Dew Point: 67.5 F (19.7 C)
Relative Humidity: 97%
Pressure (altimeter): 29.76 in. Hg (1007 hPa)
ob: KJOT 220055Z AUTO 05005KT 4SM BR OVC009 20/20 A2976 RMK AO2 T02010197
Raw METAR:KJOT 220055Z AUTO 05005KT 4SM BR OVC009 20/20 A2976 RMK AO2 T02010197
cycle: 1
Back to top

Kankakee, Greater Kankakee Airport, IL, United States (KIKK) 41-04-17N 087-50-47W
Wind: from the E (090 degrees) at 8 MPH (7 KT):0
Visibility: 10 mile(s):0
Sky conditions: overcast
Temperature: 67.5 F (19.7 C)
Dew Point: 65.5 F (18.6 C)
Relative Humidity: 93%
Pressure (altimeter): 29.75 in. Hg (1007 hPa)
ob: KIKK 220055Z AUTO 09007KT 10SM OVC012 20/19 A2975 RMK AO2 T01970186
Raw METAR:KIKK 220055Z AUTO 09007KT 10SM OVC012 20/19 A2975 RMK AO2 T01970186
cycle: 1
Back to top

Morris, Morris Municipal-James R Washburn Field Airport, IL, United States (KC09) 41-25-31N 088-25-07W
Wind: from the ENE (060 degrees) at 5 MPH (4 KT):0
Visibility: 7 mile(s):0
Sky conditions: overcast
Weather: light rain
Temperature: 67.1 F (19.5 C)
Dew Point: 65.5 F (18.6 C)
Relative Humidity: 94%
Pressure (altimeter): 29.74 in. Hg (1007 hPa)
ob: KC09 220055Z AUTO 06004KT 7SM -RA OVC015 20/19 A2974 RMK AO2 T01950186
Raw METAR:KC09 220055Z AUTO 06004KT 7SM -RA OVC015 20/19 A2974 RMK AO2 T01950186
cycle: 1
Back to top

Peru, Illinois Valley Regional-Walter A Duncan Field Airport, IL, United States (KVYS) 41-21-07N 089-09-11W
Wind: from the ENE (070 degrees) at 10 MPH (9 KT):0
Visibility: 10 mile(s):0
Sky conditions: overcast
Weather: light rain
Temperature: 68.9 F (20.5 C)
Dew Point: 66.7 F (19.3 C)
Relative Humidity: 92%
Pressure (altimeter): 29.74 in. Hg (1007 hPa)
ob: KVYS 220055Z AUTO 07009KT 10SM -RA OVC006 21/19 A2974 RMK AO2 T02050193
Raw METAR:KVYS 220055Z AUTO 07009KT 10SM -RA OVC006 21/19 A2974 RMK AO2 T02050193
cycle: 1
Back to top

Rochelle, Rochelle Municipal-Koritz Field Airport, IL, United States (KRPJ) 41-53-35N 089-04-42W
Wind: from the ENE (070 degrees) at 10 MPH (9 KT) gusting to 17 MPH (15 KT):0
Visibility: 4 mile(s):0
Sky conditions: overcast
Weather: heavy rain
Precipitation last hour: 0.16 inches
Temperature: 63.5 F (17.5 C)
Dew Point: 63.1 F (17.3 C)
Relative Humidity: 98%
Pressure (altimeter): 29.78 in. Hg (1008 hPa)
ob: KRPJ 220055Z AUTO 07009G15KT 4SM +RA OVC005 18/17 A2978 RMK AO2 P0016 T01750173
Raw METAR:KRPJ 220055Z AUTO 07009G15KT 4SM +RA OVC005 18/17 A2978 RMK AO2 P0016 T01750173
cycle: 1
Back to top